Time;durP1;ratioP1;P1;durP2;ratioP2;P2;SDS_P1;SDS_P2;PMS_P1;PMS_P2;Temp;Humidity;BMP_temperature;BMP_pressure;BME280_temperature;BME280_humidity;BME280_pressure;Samples;Min_cycle;Max_cycle;Signal;HPM_P1;HPM_P2
2022/07/26 00:01:00;;;;;;;9.75;2.75;;;;;;;;;;10056226;28;20426;-68
2022/07/26 00:05:57;;;;;;;9.63;2.95;;;;;;;;;;10060980;28;20398;-68
2022/07/26 00:10:53;;;;;;;12.18;3.53;;;;;;;;;;10040978;28;20043;-68
2022/07/26 00:15:50;;;;;;;10.70;2.70;;;;;;;;;;10046950;28;20095;-68
2022/07/26 00:20:47;;;;;;;10.35;2.92;;;;;;;;;;10038675;28;20418;-68
2022/07/26 00:25:43;;;;;;;14.02;2.80;;;;;;;;;;10058032;28;20049;-68
2022/07/26 00:30:40;;;;;;;10.52;2.65;;;;;;;;;;10075038;28;20071;-68
2022/07/26 00:35:36;;;;;;;9.05;2.72;;;;;;;;;;10061981;28;20087;-68
2022/07/26 00:40:32;;;;;;;7.57;2.58;;;;;;;;;;10071909;28;20557;-67
2022/07/26 00:45:29;;;;;;;8.90;2.22;;;;;;;;;;10055491;28;20066;-68
2022/07/26 00:50:25;;;;;;;7.70;2.22;;;;;;;;;;10060196;28;20151;-67
2022/07/26 00:55:21;;;;;;;7.05;1.95;;;;;;;;;;10054859;28;20576;-68
2022/07/26 01:00:19;;;;;;;7.25;1.88;;;;;;;;;;10048809;28;20422;-67
2022/07/26 01:05:16;;;;;;;14.70;4.18;;;;;;;;;;10052506;28;20059;-68
2022/07/26 01:10:12;;;;;;;8.60;2.45;;;;;;;;;;10074007;28;20087;-68
2022/07/26 01:15:09;;;;;;;5.82;1.88;;;;;;;;;;10064655;28;20475;-68
2022/07/26 01:20:07;;;;;;;4.70;1.67;;;;;;;;;;10074537;28;20051;-67
2022/07/26 01:25:04;;;;;;;6.80;2.33;;;;;;;;;;10051938;28;20051;-68
2022/07/26 01:30:00;;;;;;;6.60;1.90;;;;;;;;;;10074620;28;20127;-68
2022/07/26 01:34:57;;;;;;;9.23;2.20;;;;;;;;;;10050249;29;20055;-68
2022/07/26 01:39:53;;;;;;;7.80;2.15;;;;;;;;;;10068677;28;20462;-68
2022/07/26 01:44:49;;;;;;;11.80;2.38;;;;;;;;;;10057125;28;20043;-68
2022/07/26 01:49:45;;;;;;;9.65;2.25;;;;;;;;;;10062469;28;20130;-68
2022/07/26 01:54:42;;;;;;;9.02;2.75;;;;;;;;;;10055610;28;20044;-68
2022/07/26 01:59:38;;;;;;;7.05;2.10;;;;;;;;;;10044410;28;20083;-68
2022/07/26 02:09:49;;;;;;;10.45;2.45;;;;;;;;;;10041903;28;20157;-68
2022/07/26 02:14:45;;;;;;;11.95;3.30;;;;;;;;;;10042497;28;20657;-67
2022/07/26 02:19:42;;;;;;;13.18;2.33;;;;;;;;;;10041907;28;20098;-68
2022/07/26 02:24:38;;;;;;;10.00;2.72;;;;;;;;;;10054510;28;20066;-68
2022/07/26 02:29:35;;;;;;;7.35;2.47;;;;;;;;;;10072021;28;20072;-68
2022/07/26 02:34:31;;;;;;;10.38;2.63;;;;;;;;;;10052703;28;20612;-68
2022/07/26 02:39:29;;;;;;;13.52;3.10;;;;;;;;;;10057599;28;20052;-67
2022/07/26 02:44:26;;;;;;;12.02;2.67;;;;;;;;;;10052023;28;20058;-68
2022/07/26 02:49:22;;;;;;;8.18;2.35;;;;;;;;;;10041026;28;20079;-67
2022/07/26 02:54:18;;;;;;;16.05;3.28;;;;;;;;;;10048259;28;20123;-68
2022/07/26 02:59:15;;;;;;;11.10;3.22;;;;;;;;;;10040708;28;20075;-67
2022/07/26 03:04:11;;;;;;;14.77;2.33;;;;;;;;;;10049585;28;20565;-68
2022/07/26 03:09:07;;;;;;;13.30;2.75;;;;;;;;;;10078777;28;20110;-67
2022/07/26 03:14:04;;;;;;;11.00;2.17;;;;;;;;;;10078288;28;20062;-67
2022/07/26 03:19:00;;;;;;;12.05;2.50;;;;;;;;;;10078712;28;20055;-67
2022/07/26 03:23:57;;;;;;;9.40;2.60;;;;;;;;;;10050178;28;20048;-67
2022/07/26 03:28:53;;;;;;;11.18;2.30;;;;;;;;;;10039218;28;20532;-67
2022/07/26 03:33:49;;;;;;;9.88;2.05;;;;;;;;;;10046280;28;20043;-67
2022/07/26 03:38:46;;;;;;;8.20;2.22;;;;;;;;;;10066287;28;20470;-67
2022/07/26 03:43:42;;;;;;;14.57;2.75;;;;;;;;;;10043862;28;20117;-67
2022/07/26 03:48:38;;;;;;;11.23;2.45;;;;;;;;;;10064109;28;20138;-67
2022/07/26 03:53:34;;;;;;;14.65;3.28;;;;;;;;;;10057626;28;20124;-68
2022/07/26 03:58:31;;;;;;;11.48;2.55;;;;;;;;;;10048108;28;20060;-68
2022/07/26 04:03:27;;;;;;;15.15;2.75;;;;;;;;;;10040986;28;20071;-67
2022/07/26 04:08:24;;;;;;;12.45;2.45;;;;;;;;;;10040544;28;20075;-68
2022/07/26 04:13:22;;;;;;;17.98;2.80;;;;;;;;;;10040347;28;20143;-67
2022/07/26 04:18:19;;;;;;;10.23;2.70;;;;;;;;;;10039329;28;20502;-68
2022/07/26 04:23:15;;;;;;;13.27;2.78;;;;;;;;;;10039829;28;20498;-68
2022/07/26 04:28:11;;;;;;;16.20;3.60;;;;;;;;;;10075882;28;20739;-68
2022/07/26 04:33:08;;;;;;;12.27;2.55;;;;;;;;;;10057160;28;20075;-68
2022/07/26 04:38:04;;;;;;;16.25;2.90;;;;;;;;;;10075289;28;20082;-68
2022/07/26 04:43:01;;;;;;;14.07;2.83;;;;;;;;;;10041463;28;20495;-68
2022/07/26 04:47:57;;;;;;;13.15;2.92;;;;;;;;;;10064370;28;20067;-68
2022/07/26 04:52:54;;;;;;;11.25;2.63;;;;;;;;;;10036896;28;20142;-68
2022/07/26 04:57:50;;;;;;;8.95;2.40;;;;;;;;;;10060396;28;20115;-68
2022/07/26 05:02:48;;;;;;;8.52;2.13;;;;;;;;;;10036456;28;20535;-68
2022/07/26 05:07:45;;;;;;;5.57;1.77;;;;;;;;;;10058622;28;20127;-68
2022/07/26 05:12:41;;;;;;;6.60;1.77;;;;;;;;;;10036038;28;20513;-68
2022/07/26 05:17:38;;;;;;;6.28;1.60;;;;;;;;;;10044589;28;20059;-68
2022/07/26 05:22:35;;;;;;;4.45;1.63;;;;;;;;;;10036118;28;20066;-68
2022/07/26 05:27:31;;;;;;;8.07;2.08;;;;;;;;;;10071572;28;20126;-68
2022/07/26 05:32:28;;;;;;;4.93;1.60;;;;;;;;;;10061704;28;20616;-69
2022/07/26 05:37:24;;;;;;;4.13;1.60;;;;;;;;;;10069403;28;20098;-68
2022/07/26 05:42:20;;;;;;;6.57;2.38;;;;;;;;;;10074360;28;20083;-67
2022/07/26 05:47:17;;;;;;;3.97;1.80;;;;;;;;;;10073977;28;20776;-67
2022/07/26 05:52:13;;;;;;;4.18;1.73;;;;;;;;;;10045704;28;20102;-66
2022/07/26 05:57:10;;;;;;;6.68;3.30;;;;;;;;;;10066935;28;20489;-67
2022/07/26 06:02:07;;;;;;;7.93;2.40;;;;;;;;;;10044388;28;20762;-67
2022/07/26 06:07:04;;;;;;;5.13;2.35;;;;;;;;;;10066528;28;20048;-67
2022/07/26 06:12:00;;;;;;;6.00;2.00;;;;;;;;;;10074019;28;20078;-67
2022/07/26 06:16:56;;;;;;;6.30;2.72;;;;;;;;;;10072395;28;20476;-67
2022/07/26 06:21:53;;;;;;;7.93;2.30;;;;;;;;;;10035138;28;20052;-67
2022/07/26 06:26:52;;;;;;;9.52;2.30;;;;;;;;;;10064399;28;20086;-67
2022/07/26 06:31:53;;;;;;;5.30;2.15;;;;;;;;;;10041936;28;20078;-67
2022/07/26 06:36:49;;;;;;;8.30;2.45;;;;;;;;;;10049752;28;20079;-68
2022/07/26 06:41:46;;;;;;;10.23;2.80;;;;;;;;;;10041420;28;20079;-67
2022/07/26 06:46:42;;;;;;;7.28;2.78;;;;;;;;;;10070367;28;20082;-68
2022/07/26 06:51:38;;;;;;;7.13;2.55;;;;;;;;;;10063562;28;20143;-68
2022/07/26 06:56:34;;;;;;;8.88;2.13;;;;;;;;;;10068600;28;20130;-68
2022/07/26 07:01:31;;;;;;;11.13;2.88;;;;;;;;;;10056649;28;20095;-68
2022/07/26 07:06:47;;;;;;;7.35;2.28;;;;;;;;;;10069617;28;20476;-69
2022/07/26 07:11:45;;;;;;;8.85;1.98;;;;;;;;;;10043817;28;20073;-68
2022/07/26 07:16:44;;;;;;;8.68;1.85;;;;;;;;;;10068769;28;20047;-68
2022/07/26 07:21:40;;;;;;;4.25;1.13;;;;;;;;;;10078699;28;20109;-68
2022/07/26 07:26:36;;;;;;;4.75;1.15;;;;;;;;;;10068165;28;20055;-68
2022/07/26 07:31:32;;;;;;;5.13;1.52;;;;;;;;;;10039584;28;20135;-68
2022/07/26 07:36:44;;;;;;;7.25;1.95;;;;;;;;;;10050294;28;20513;-68
2022/07/26 07:41:42;;;;;;;7.78;1.77;;;;;;;;;;10039241;28;20139;-68
2022/07/26 07:46:39;;;;;;;8.27;1.65;;;;;;;;;;10067213;28;20074;-69
2022/07/26 07:51:35;;;;;;;3.90;0.70;;;;;;;;;;10076442;28;20501;-68
2022/07/26 07:56:32;;;;;;;4.18;0.68;;;;;;;;;;10065572;28;20098;-68
2022/07/26 08:01:28;;;;;;;4.22;0.85;;;;;;;;;;10060380;28;20075;-69
2022/07/26 08:06:36;;;;;;;4.53;0.90;;;;;;;;;;10065753;28;20094;-68
2022/07/26 08:11:32;;;;;;;5.43;1.52;;;;;;;;;;10042147;28;20052;-68
2022/07/26 08:16:29;;;;;;;4.03;0.98;;;;;;;;;;10059847;28;20106;-68
2022/07/26 08:21:26;;;;;;;2.58;0.60;;;;;;;;;;10037704;28;20067;-68
2022/07/26 08:26:24;;;;;;;4.93;0.80;;;;;;;;;;10062568;28;20054;-68
2022/07/26 08:31:20;;;;;;;5.55;1.25;;;;;;;;;;10076376;28;20075;-68
2022/07/26 08:36:17;;;;;;;6.03;1.20;;;;;;;;;;10058576;28;20098;-68
2022/07/26 08:41:13;;;;;;;9.60;1.65;;;;;;;;;;10037442;28;20143;-68
2022/07/26 08:46:09;;;;;;;8.35;1.77;;;;;;;;;;10061133;28;20071;-68
2022/07/26 08:51:07;;;;;;;5.22;2.08;;;;;;;;;;10074193;28;20055;-68
2022/07/26 08:56:06;;;;;;;7.35;1.42;;;;;;;;;;10060330;28;20048;-68
2022/07/26 09:01:04;;;;;;;4.85;0.93;;;;;;;;;;10068343;28;20051;-68
2022/07/26 09:06:29;;;;;;;2.55;0.60;;;;;;;;;;10058685;28;20170;-68
2022/07/26 09:11:27;;;;;;;4.70;0.65;;;;;;;;;;10062331;28;20059;-68
2022/07/26 09:16:24;;;;;;;3.45;1.05;;;;;;;;;;10068669;28;20110;-68
2022/07/26 09:21:27;;;;;;;3.50;0.63;;;;;;;;;;10036694;28;20061;-68
2022/07/26 09:26:24;;;;;;;8.98;1.15;;;;;;;;;;10036788;28;20052;-68
2022/07/26 09:31:21;;;;;;;5.72;1.63;;;;;;;;;;10036186;28;20082;-68
2022/07/26 09:36:18;;;;;;;2.67;0.60;;;;;;;;;;10061099;28;20110;-68
2022/07/26 09:41:26;;;;;;;5.88;0.70;;;;;;;;;;10074320;28;20054;-68
2022/07/26 09:46:24;;;;;;;3.65;0.90;;;;;;;;;;10073966;28;20127;-68
2022/07/26 09:51:34;;;;;;;3.90;0.85;;;;;;;;;;10068407;28;20054;-68
2022/07/26 09:56:44;;;;;;;4.18;0.90;;;;;;;;;;10061803;28;20063;-68
2022/07/26 10:01:40;;;;;;;3.13;1.10;;;;;;;;;;10061055;28;20048;-68
2022/07/26 10:06:37;;;;;;;4.15;1.40;;;;;;;;;;10070331;28;20081;-68
2022/07/26 10:11:54;;;;;;;4.45;1.17;;;;;;;;;;10047236;28;20538;-68
2022/07/26 10:16:50;;;;;;;2.47;1.00;;;;;;;;;;10072034;28;20047;-68
2022/07/26 10:21:46;;;;;;;7.22;1.23;;;;;;;;;;10042847;28;20122;-68
2022/07/26 10:26:44;;;;;;;3.67;1.00;;;;;;;;;;10058001;28;20056;-68
2022/07/26 10:31:44;;;;;;;6.28;1.40;;;;;;;;;;10041603;28;20055;-68
2022/07/26 10:36:41;;;;;;;5.10;1.45;;;;;;;;;;10052768;28;20047;-68
2022/07/26 10:41:42;;;;;;;6.03;1.50;;;;;;;;;;10041933;28;20577;-68
2022/07/26 10:46:54;;;;;;;5.75;2.08;;;;;;;;;;10069202;28;20501;-68
2022/07/26 10:51:50;;;;;;;;;;;;;;;;;;10079629;28;20051;-69
2022/07/26 10:56:47;;;;;;;3.10;1.40;;;;;;;;;;10069665;28;19945;-67
2022/07/26 11:01:44;;;;;;;7.25;2.33;;;;;;;;;;10078949;28;20204;-67
2022/07/26 11:06:40;;;;;;;5.97;1.75;;;;;;;;;;10078776;28;20090;-67
2022/07/26 11:11:37;;;;;;;8.00;2.38;;;;;;;;;;10050568;28;20131;-67
2022/07/26 11:16:42;;;;;;;8.70;1.95;;;;;;;;;;10067238;28;20051;-66
2022/07/26 11:21:40;;;;;;;6.95;1.98;;;;;;;;;;10047316;28;20056;-67
2022/07/26 11:26:42;;;;;;;8.25;2.45;;;;;;;;;;10067678;28;20051;-67
2022/07/26 11:31:40;;;;;;;5.85;2.33;;;;;;;;;;10042663;28;20565;-66
2022/07/26 11:36:52;;;;;;;7.68;2.10;;;;;;;;;;10065700;28;20477;-67
2022/07/26 11:41:49;;;;;;;6.55;2.47;;;;;;;;;;10039495;28;20048;-67
2022/07/26 11:46:46;;;;;;;5.95;2.28;;;;;;;;;;10065104;28;21093;-68
2022/07/26 11:51:49;;;;;;;8.52;2.90;;;;;;;;;;10038841;28;20051;-68
2022/07/26 11:57:03;;;;;;;10.93;2.70;;;;;;;;;;10052424;28;20080;-69
2022/07/26 12:02:01;;;;;;;7.82;2.55;;;;;;;;;;10038752;28;20754;-69
2022/07/26 12:06:58;;;;;;;9.00;3.08;;;;;;;;;;10048175;28;20055;-68
2022/07/26 12:11:54;;;;;;;20.50;3.30;;;;;;;;;;10037641;28;20075;-68
2022/07/26 12:16:50;;;;;;;9.32;2.72;;;;;;;;;;10067137;28;20560;-68
2022/07/26 12:21:49;;;;;;;9.60;2.53;;;;;;;;;;10076294;28;20421;-68
2022/07/26 12:27:02;;;;;;;7.53;2.47;;;;;;;;;;10049052;28;20099;-68
2022/07/26 12:32:00;;;;;;;6.20;2.58;;;;;;;;;;10037805;28;20134;-68
2022/07/26 12:37:16;;;;;;;6.88;2.03;;;;;;;;;;10036034;28;20051;-68
2022/07/26 12:42:19;;;;;;;9.32;3.05;;;;;;;;;;10037403;28;20530;-68
2022/07/26 12:47:16;;;;;;;6.95;2.28;;;;;;;;;;10073624;28;20055;-68
2022/07/26 12:52:14;;;;;;;7.97;3.15;;;;;;;;;;10063538;28;20532;-68
2022/07/26 12:57:10;;;;;;;8.00;2.80;;;;;;;;;;10069057;28;20130;-68
2022/07/26 13:02:06;;;;;;;5.65;2.38;;;;;;;;;;10045167;28;20130;-68
2022/07/26 13:07:03;;;;;;;9.13;3.45;;;;;;;;;;10067687;28;20051;-68
2022/07/26 13:12:00;;;;;;;6.13;2.50;;;;;;;;;;10069398;28;20538;-68
2022/07/26 13:16:56;;;;;;;7.20;2.42;;;;;;;;;;10066911;28;20047;-68
2022/07/26 13:21:56;;;;;;;5.85;2.25;;;;;;;;;;10053690;28;20130;-68
2022/07/26 13:26:53;;;;;;;7.45;2.85;;;;;;;;;;10065882;28;20054;-68
2022/07/26 13:31:50;;;;;;;7.18;2.42;;;;;;;;;;10041101;28;20126;-69
2022/07/26 13:36:46;;;;;;;8.88;2.13;;;;;;;;;;10070855;28;20047;-69
2022/07/26 13:41:43;;;;;;;5.07;2.70;;;;;;;;;;10082395;28;20071;-69
2022/07/26 13:46:39;;;;;;;8.80;2.65;;;;;;;;;;10080698;28;20097;-68
2022/07/26 13:56:52;;;;;;;6.70;2.80;;;;;;;;;;10073234;28;20086;-68
2022/07/26 14:01:48;;;;;;;9.75;2.95;;;;;;;;;;10081373;28;20055;-68
2022/07/26 14:06:45;;;;;;;8.57;2.25;;;;;;;;;;10079646;28;20514;-68
2022/07/26 14:11:41;;;;;;;9.73;2.60;;;;;;;;;;10042665;28;20131;-68
2022/07/26 14:16:38;;;;;;;8.45;2.50;;;;;;;;;;10052646;28;20044;-68
2022/07/26 14:21:34;;;;;;;6.60;2.15;;;;;;;;;;10042289;28;20390;-68
2022/07/26 14:26:50;;;;;;;6.70;2.60;;;;;;;;;;10042603;28;20146;-69
2022/07/26 14:31:53;;;;;;;6.28;2.40;;;;;;;;;;10045122;28;20071;-68
2022/07/26 14:36:50;;;;;;;8.68;2.30;;;;;;;;;;10079732;28;20109;-68
2022/07/26 14:41:46;;;;;;;4.55;3.00;;;;;;;;;;10067588;28;20319;-68
2022/07/26 14:46:44;;;;;;;8.23;3.10;;;;;;;;;;10068876;28;20074;-68
2022/07/26 14:51:40;;;;;;;7.65;3.05;;;;;;;;;;10053396;28;20051;-68
2022/07/26 14:56:36;;;;;;;7.03;2.85;;;;;;;;;;10068547;28;20095;-68
2022/07/26 15:01:33;;;;;;;6.43;2.45;;;;;;;;;;10041373;28;20114;-68
2022/07/26 15:06:29;;;;;;;7.53;3.28;;;;;;;;;;10055533;28;20463;-68
2022/07/26 15:11:25;;;;;;;5.50;3.17;;;;;;;;;;10040797;28;20095;-68
2022/07/26 15:16:22;;;;;;;8.65;3.17;;;;;;;;;;10044930;28;20075;-68
2022/07/26 15:21:18;;;;;;;9.00;4.13;;;;;;;;;;10040427;28;20056;-68
2022/07/26 15:26:15;;;;;;;8.50;3.15;;;;;;;;;;10041115;28;20486;-68
2022/07/26 15:31:11;;;;;;;7.72;3.35;;;;;;;;;;10039824;28;20482;-68
2022/07/26 15:36:07;;;;;;;8.43;3.30;;;;;;;;;;10063568;28;20477;-68
2022/07/26 15:41:03;;;;;;;9.35;2.88;;;;;;;;;;10073785;28;20520;-69
2022/07/26 15:46:00;;;;;;;6.47;3.00;;;;;;;;;;10062132;28;20082;-68
2022/07/26 15:51:00;;;;;;;10.88;3.65;;;;;;;;;;10064608;28;20071;-68
2022/07/26 15:55:57;;;;;;;7.70;3.90;;;;;;;;;;10061365;28;20478;-69
2022/07/26 16:00:54;;;;;;;8.88;3.25;;;;;;;;;;10056044;28;20118;-70
2022/07/26 16:05:50;;;;;;;11.77;3.60;;;;;;;;;;10059873;28;20047;-68
2022/07/26 16:10:47;;;;;;;13.52;3.53;;;;;;;;;;10053414;28;20067;-69
2022/07/26 16:15:43;;;;;;;5.78;3.22;;;;;;;;;;10059022;28;20114;-68
2022/07/26 16:20:40;;;;;;;6.05;4.03;;;;;;;;;;10039843;28;20075;-68
2022/07/26 16:25:37;;;;;;;6.10;3.22;;;;;;;;;;10045885;28;20039;-68
2022/07/26 16:30:35;;;;;;;7.47;3.55;;;;;;;;;;10037980;28;20486;-68
2022/07/26 16:35:31;;;;;;;6.63;3.17;;;;;;;;;;10055548;28;20059;-68
2022/07/26 16:40:28;;;;;;;8.95;3.97;;;;;;;;;;10076305;28;20071;-68
2022/07/26 16:45:24;;;;;;;6.88;3.42;;;;;;;;;;10070487;28;20106;-68
2022/07/26 16:50:21;;;;;;;8.45;3.65;;;;;;;;;;10075831;28;20047;-68
2022/07/26 16:55:23;;;;;;;6.90;2.67;;;;;;;;;;10059850;28;20047;-68
2022/07/26 17:00:21;;;;;;;7.93;3.00;;;;;;;;;;10073485;28;20055;-68
2022/07/26 17:05:17;;;;;;;8.35;3.17;;;;;;;;;;10053945;28;20071;-68
2022/07/26 17:10:14;;;;;;;6.05;3.00;;;;;;;;;;10073481;28;20058;-68
2022/07/26 17:15:11;;;;;;;11.00;4.00;;;;;;;;;;10052568;28;20054;-68
2022/07/26 17:20:07;;;;;;;7.05;3.47;;;;;;;;;;10060528;28;20086;-68
2022/07/26 17:25:05;;;;;;;5.35;2.70;;;;;;;;;;10051250;28;20547;-68
2022/07/26 17:30:02;;;;;;;7.95;3.10;;;;;;;;;;10049605;28;20055;-68
2022/07/26 17:35:03;;;;;;;7.03;3.33;;;;;;;;;;10051011;28;20130;-68
2022/07/26 17:40:00;;;;;;;5.22;3.00;;;;;;;;;;10049381;28;20098;-68
2022/07/26 17:44:58;;;;;;;7.15;2.60;;;;;;;;;;10051087;29;20103;-68
2022/07/26 17:49:54;;;;;;;5.45;2.97;;;;;;;;;;10044341;28;20074;-68
2022/07/26 17:54:56;;;;;;;7.53;3.00;;;;;;;;;;10048102;28;20044;-68
2022/07/26 17:59:52;;;;;;;8.80;3.38;;;;;;;;;;10034829;28;20071;-67
2022/07/26 18:04:49;;;;;;;12.48;3.50;;;;;;;;;;10049552;28;20497;-67
2022/07/26 18:09:45;;;;;;;8.73;2.90;;;;;;;;;;10073515;28;20055;-67
2022/07/26 18:14:42;;;;;;;9.75;3.92;;;;;;;;;;10062901;28;20106;-67
2022/07/26 18:19:38;;;;;;;7.97;3.60;;;;;;;;;;10073726;28;20070;-67
2022/07/26 18:24:34;;;;;;;5.65;2.97;;;;;;;;;;10058186;28;20077;-67
2022/07/26 18:29:31;;;;;;;7.40;3.50;;;;;;;;;;10069826;28;20083;-67
2022/07/26 18:34:27;;;;;;;6.20;3.30;;;;;;;;;;10052326;28;20035;-67
2022/07/26 18:39:23;;;;;;;7.38;3.13;;;;;;;;;;10054519;28;20502;-67
2022/07/26 18:44:27;;;;;;;7.45;2.22;;;;;;;;;;10048290;28;20054;-67
2022/07/26 18:49:24;;;;;;;6.57;3.20;;;;;;;;;;10040779;28;20475;-67
2022/07/26 18:54:26;;;;;;;8.10;2.30;;;;;;;;;;10041683;28;20052;-67
2022/07/26 18:59:23;;;;;;;7.38;2.50;;;;;;;;;;10040797;28;20154;-67
2022/07/26 19:04:19;;;;;;;5.72;2.38;;;;;;;;;;10050328;28;20069;-67
2022/07/26 19:09:17;;;;;;;6.00;2.45;;;;;;;;;;10079028;28;20055;-67
2022/07/26 19:14:13;;;;;;;6.72;1.83;;;;;;;;;;10051024;28;20054;-67
2022/07/26 19:19:09;;;;;;;7.05;2.22;;;;;;;;;;10074707;28;20502;-67
2022/07/26 19:24:06;;;;;;;5.95;2.10;;;;;;;;;;10047991;28;20043;-67
2022/07/26 19:29:02;;;;;;;7.45;2.10;;;;;;;;;;10069779;28;20053;-67
2022/07/26 19:33:59;;;;;;;4.90;2.28;;;;;;;;;;10046721;28;20055;-67
2022/07/26 19:38:56;;;;;;;7.53;2.17;;;;;;;;;;10076841;28;20425;-67
2022/07/26 19:43:52;;;;;;;4.07;2.05;;;;;;;;;;10078137;28;20122;-67
2022/07/26 19:48:49;;;;;;;6.32;2.28;;;;;;;;;;10040536;28;20043;-67
2022/07/26 19:53:45;;;;;;;7.00;2.03;;;;;;;;;;10045031;28;20528;-67
2022/07/26 19:58:41;;;;;;;5.30;1.50;;;;;;;;;;10077251;28;20085;-67
2022/07/26 20:03:38;;;;;;;5.18;1.30;;;;;;;;;;10055298;28;20497;-67
2022/07/26 20:08:34;;;;;;;4.07;1.30;;;;;;;;;;10076357;28;20097;-67
2022/07/26 20:13:30;;;;;;;8.70;1.38;;;;;;;;;;10047022;28;20184;-67
2022/07/26 20:18:29;;;;;;;4.63;1.27;;;;;;;;;;10076533;28;20130;-67
2022/07/26 20:23:27;;;;;;;6.30;1.80;;;;;;;;;;10043432;28;20043;-67
2022/07/26 20:28:23;;;;;;;5.18;1.60;;;;;;;;;;10073029;28;20044;-67
2022/07/26 20:33:20;;;;;;;9.40;1.70;;;;;;;;;;10039578;28;20079;-67
2022/07/26 20:38:19;;;;;;;4.22;1.65;;;;;;;;;;10060713;28;20048;-67
2022/07/26 20:43:16;;;;;;;5.88;1.52;;;;;;;;;;10038421;28;20517;-67
2022/07/26 20:48:12;;;;;;;7.97;2.67;;;;;;;;;;10058468;28;20052;-67
2022/07/26 20:53:08;;;;;;;9.07;2.67;;;;;;;;;;10037585;28;20495;-67
2022/07/26 20:58:05;;;;;;;6.97;2.58;;;;;;;;;;10042065;28;20126;-67
2022/07/26 21:03:01;;;;;;;10.65;2.88;;;;;;;;;;10037060;28;20484;-67
2022/07/26 21:07:57;;;;;;;10.23;3.08;;;;;;;;;;10074361;28;20059;-67
2022/07/26 21:12:59;;;;;;;8.18;1.67;;;;;;;;;;10056038;28;20052;-67
2022/07/26 21:17:56;;;;;;;6.47;2.25;;;;;;;;;;10074059;28;20506;-67
2022/07/26 21:22:52;;;;;;;9.20;2.65;;;;;;;;;;10038693;28;20131;-67
2022/07/26 21:28:03;;;;;;;4.68;1.48;;;;;;;;;;10071934;28;20059;-67
2022/07/26 21:32:59;;;;;;;6.97;1.85;;;;;;;;;;10036062;28;20522;-67
2022/07/26 21:37:56;;;;;;;8.75;2.58;;;;;;;;;;10073334;28;20151;-67
2022/07/26 21:42:52;;;;;;;7.53;2.60;;;;;;;;;;10035876;28;20082;-67
2022/07/26 21:47:48;;;;;;;6.20;2.20;;;;;;;;;;10060246;28;20086;-67
2022/07/26 21:52:44;;;;;;;7.18;1.75;;;;;;;;;;10035094;28;20082;-67
2022/07/26 21:57:43;;;;;;;6.63;1.80;;;;;;;;;;10057880;28;20047;-67
2022/07/26 22:02:39;;;;;;;5.93;2.15;;;;;;;;;;10042957;28;20110;-67
2022/07/26 22:07:35;;;;;;;7.65;1.50;;;;;;;;;;10078757;28;20086;-67
2022/07/26 22:12:32;;;;;;;8.80;2.20;;;;;;;;;;10081698;28;20126;-67
2022/07/26 22:17:28;;;;;;;7.28;2.08;;;;;;;;;;10080465;28;20051;-67
2022/07/26 22:22:24;;;;;;;3.53;1.27;;;;;;;;;;10070805;28;20082;-67
2022/07/26 22:27:20;;;;;;;9.70;2.38;;;;;;;;;;10075629;28;20094;-67
2022/07/26 22:32:17;;;;;;;8.40;2.22;;;;;;;;;;10058306;28;20079;-67
2022/07/26 22:37:13;;;;;;;5.13;1.67;;;;;;;;;;10074551;28;20572;-67
2022/07/26 22:42:09;;;;;;;6.88;1.55;;;;;;;;;;10053242;28;20506;-67
2022/07/26 22:47:11;;;;;;;5.15;1.55;;;;;;;;;;10073742;28;20120;-67
2022/07/26 22:52:07;;;;;;;5.57;1.95;;;;;;;;;;10051208;28;20135;-67
2022/07/26 22:57:03;;;;;;;6.88;1.23;;;;;;;;;;10072261;28;20560;-67
2022/07/26 23:02:00;;;;;;;6.45;1.75;;;;;;;;;;10054904;28;20130;-67
2022/07/26 23:06:56;;;;;;;5.13;1.40;;;;;;;;;;10061378;28;20048;-67
2022/07/26 23:11:53;;;;;;;9.00;2.10;;;;;;;;;;10040210;28;20511;-67
2022/07/26 23:16:50;;;;;;;7.40;1.40;;;;;;;;;;10060024;28;20051;-67
2022/07/26 23:21:46;;;;;;;7.82;2.17;;;;;;;;;;10040210;28;20046;-67
2022/07/26 23:26:42;;;;;;;5.82;2.13;;;;;;;;;;10043257;28;20135;-67
2022/07/26 23:31:39;;;;;;;7.38;1.50;;;;;;;;;;10039988;28;20426;-67
2022/07/26 23:36:35;;;;;;;6.07;1.45;;;;;;;;;;10067827;28;20062;-65
2022/07/26 23:41:31;;;;;;;7.30;2.03;;;;;;;;;;10078725;28;20074;-67
2022/07/26 23:46:28;;;;;;;7.50;1.58;;;;;;;;;;10077347;28;20043;-67
2022/07/26 23:51:24;;;;;;;8.10;1.75;;;;;;;;;;10063342;28;20054;-67
2022/07/26 23:56:21;;;;;;;10.68;2.60;;;;;;;;;;10064370;28;20058;-68
